sensor_id;sensor_type;location;lat;lon;timestamp;P1;durP1;ratioP1;P2;durP2;ratioP2
9722;SDS011;4900;49.306;8.500;2023-05-24T00:00:14;5.50;;;3.60;;
9722;SDS011;4900;49.306;8.500;2023-05-24T00:02:40;5.95;;;3.47;;
9722;SDS011;4900;49.306;8.500;2023-05-24T00:05:08;4.72;;;3.22;;
9722;SDS011;4900;49.306;8.500;2023-05-24T00:07:37;5.90;;;3.90;;
9722;SDS011;4900;49.306;8.500;2023-05-24T00:10:06;4.82;;;3.13;;
9722;SDS011;4900;49.306;8.500;2023-05-24T00:12:32;7.15;;;3.63;;
9722;SDS011;4900;49.306;8.500;2023-05-24T00:14:57;5.90;;;3.42;;
9722;SDS011;4900;49.306;8.500;2023-05-24T00:17:23;3.88;;;3.22;;
9722;SDS011;4900;49.306;8.500;2023-05-24T00:19:49;9.45;;;3.70;;
9722;SDS011;4900;49.306;8.500;2023-05-24T00:22:16;6.78;;;3.58;;
9722;SDS011;4900;49.306;8.500;2023-05-24T00:24:45;5.85;;;3.58;;
9722;SDS011;4900;49.306;8.500;2023-05-24T00:27:11;6.30;;;3.50;;
9722;SDS011;4900;49.306;8.500;2023-05-24T00:29:38;7.03;;;3.85;;
9722;SDS011;4900;49.306;8.500;2023-05-24T00:32:03;6.53;;;3.67;;
9722;SDS011;4900;49.306;8.500;2023-05-24T00:34:29;6.57;;;3.92;;
9722;SDS011;4900;49.306;8.500;2023-05-24T00:36:54;6.63;;;3.50;;
9722;SDS011;4900;49.306;8.500;2023-05-24T00:39:22;6.40;;;3.72;;
9722;SDS011;4900;49.306;8.500;2023-05-24T00:41:48;6.80;;;3.92;;
9722;SDS011;4900;49.306;8.500;2023-05-24T00:44:13;5.57;;;3.65;;
9722;SDS011;4900;49.306;8.500;2023-05-24T00:46:39;9.02;;;3.72;;
9722;SDS011;4900;49.306;8.500;2023-05-24T00:49:05;6.95;;;4.05;;
9722;SDS011;4900;49.306;8.500;2023-05-24T00:51:31;5.43;;;3.75;;
9722;SDS011;4900;49.306;8.500;2023-05-24T00:53:57;6.40;;;3.60;;
9722;SDS011;4900;49.306;8.500;2023-05-24T00:56:23;6.35;;;3.80;;
9722;SDS011;4900;49.306;8.500;2023-05-24T00:58:50;7.78;;;3.90;;
9722;SDS011;4900;49.306;8.500;2023-05-24T01:01:18;5.18;;;3.63;;
9722;SDS011;4900;49.306;8.500;2023-05-24T01:03:44;8.25;;;3.78;;
9722;SDS011;4900;49.306;8.500;2023-05-24T01:06:10;5.35;;;3.50;;
9722;SDS011;4900;49.306;8.500;2023-05-24T01:16:48;6.47;;;4.13;;
9722;SDS011;4900;49.306;8.500;2023-05-24T01:28:01;6.63;;;3.70;;
9722;SDS011;4900;49.306;8.500;2023-05-24T01:30:28;5.78;;;3.78;;
9722;SDS011;4900;49.306;8.500;2023-05-24T01:32:54;6.03;;;3.63;;
9722;SDS011;4900;49.306;8.500;2023-05-24T01:35:19;6.38;;;3.78;;
9722;SDS011;4900;49.306;8.500;2023-05-24T01:37:45;5.93;;;3.83;;
9722;SDS011;4900;49.306;8.500;2023-05-24T01:40:11;7.43;;;4.18;;
9722;SDS011;4900;49.306;8.500;2023-05-24T01:42:58;5.80;;;3.40;;
9722;SDS011;4900;49.306;8.500;2023-05-24T01:48:35;6.18;;;3.45;;
9722;SDS011;4900;49.306;8.500;2023-05-24T01:51:11;6.32;;;3.65;;
9722;SDS011;4900;49.306;8.500;2023-05-24T01:53:43;7.57;;;3.83;;
9722;SDS011;4900;49.306;8.500;2023-05-24T01:56:13;8.13;;;3.78;;
9722;SDS011;4900;49.306;8.500;2023-05-24T01:58:40;6.55;;;3.50;;
9722;SDS011;4900;49.306;8.500;2023-05-24T02:01:09;7.53;;;3.72;;
9722;SDS011;4900;49.306;8.500;2023-05-24T02:03:35;7.95;;;3.50;;
9722;SDS011;4900;49.306;8.500;2023-05-24T02:06:04;8.15;;;3.58;;
9722;SDS011;4900;49.306;8.500;2023-05-24T02:08:30;7.03;;;3.20;;
9722;SDS011;4900;49.306;8.500;2023-05-24T02:10:55;7.25;;;3.45;;
9722;SDS011;4900;49.306;8.500;2023-05-24T02:13:21;4.70;;;3.30;;
9722;SDS011;4900;49.306;8.500;2023-05-24T02:15:46;5.90;;;3.72;;
9722;SDS011;4900;49.306;8.500;2023-05-24T02:18:12;8.40;;;3.72;;
9722;SDS011;4900;49.306;8.500;2023-05-24T02:20:38;8.30;;;3.42;;
9722;SDS011;4900;49.306;8.500;2023-05-24T02:23:04;5.28;;;3.20;;
9722;SDS011;4900;49.306;8.500;2023-05-24T02:25:30;6.10;;;3.40;;
9722;SDS011;4900;49.306;8.500;2023-05-24T02:27:57;6.75;;;3.30;;
9722;SDS011;4900;49.306;8.500;2023-05-24T02:30:23;4.68;;;3.15;;
9722;SDS011;4900;49.306;8.500;2023-05-24T02:32:48;6.28;;;3.30;;
9722;SDS011;4900;49.306;8.500;2023-05-24T02:35:14;7.22;;;3.50;;
9722;SDS011;4900;49.306;8.500;2023-05-24T02:37:40;7.18;;;3.20;;
9722;SDS011;4900;49.306;8.500;2023-05-24T02:40:05;6.55;;;3.30;;
9722;SDS011;4900;49.306;8.500;2023-05-24T02:42:32;5.25;;;3.28;;
9722;SDS011;4900;49.306;8.500;2023-05-24T02:44:57;7.38;;;3.17;;
9722;SDS011;4900;49.306;8.500;2023-05-24T02:47:23;7.00;;;3.50;;
9722;SDS011;4900;49.306;8.500;2023-05-24T02:49:50;9.50;;;3.50;;
9722;SDS011;4900;49.306;8.500;2023-05-24T02:52:16;8.00;;;3.20;;
9722;SDS011;4900;49.306;8.500;2023-05-24T02:54:45;7.30;;;3.20;;
9722;SDS011;4900;49.306;8.500;2023-05-24T02:57:11;9.35;;;3.50;;
9722;SDS011;4900;49.306;8.500;2023-05-24T02:59:36;6.82;;;2.90;;
9722;SDS011;4900;49.306;8.500;2023-05-24T03:02:02;15.40;;;3.67;;
9722;SDS011;4900;49.306;8.500;2023-05-24T03:04:27;13.77;;;3.55;;
9722;SDS011;4900;49.306;8.500;2023-05-24T03:06:53;6.93;;;2.80;;
9722;SDS011;4900;49.306;8.500;2023-05-24T03:09:18;6.13;;;2.55;;
9722;SDS011;4900;49.306;8.500;2023-05-24T03:11:44;2.22;;;1.85;;
9722;SDS011;4900;49.306;8.500;2023-05-24T03:14:09;3.20;;;1.75;;
9722;SDS011;4900;49.306;8.500;2023-05-24T03:16:35;2.40;;;1.58;;
9722;SDS011;4900;49.306;8.500;2023-05-24T03:19:01;4.03;;;1.92;;
9722;SDS011;4900;49.306;8.500;2023-05-24T03:21:27;1.73;;;1.42;;
9722;SDS011;4900;49.306;8.500;2023-05-24T03:23:53;3.75;;;1.40;;
9722;SDS011;4900;49.306;8.500;2023-05-24T03:26:18;1.40;;;1.30;;
9722;SDS011;4900;49.306;8.500;2023-05-24T03:28:44;1.95;;;1.30;;
9722;SDS011;4900;49.306;8.500;2023-05-24T03:31:11;1.25;;;1.15;;
9722;SDS011;4900;49.306;8.500;2023-05-24T03:33:36;1.50;;;1.20;;
9722;SDS011;4900;49.306;8.500;2023-05-24T03:36:02;1.70;;;1.20;;
9722;SDS011;4900;49.306;8.500;2023-05-24T03:38:28;2.23;;;1.17;;
9722;SDS011;4900;49.306;8.500;2023-05-24T03:40:54;1.00;;;0.95;;
9722;SDS011;4900;49.306;8.500;2023-05-24T03:43:19;1.45;;;0.95;;
9722;SDS011;4900;49.306;8.500;2023-05-24T03:45:45;0.82;;;0.82;;
9722;SDS011;4900;49.306;8.500;2023-05-24T03:48:11;1.02;;;0.90;;
9722;SDS011;4900;49.306;8.500;2023-05-24T03:50:37;2.13;;;1.20;;
9722;SDS011;4900;49.306;8.500;2023-05-24T03:53:02;0.87;;;0.87;;
9722;SDS011;4900;49.306;8.500;2023-05-24T03:55:28;0.90;;;0.88;;
9722;SDS011;4900;49.306;8.500;2023-05-24T03:57:53;1.10;;;1.00;;
9722;SDS011;4900;49.306;8.500;2023-05-24T04:00:19;0.93;;;0.90;;
9722;SDS011;4900;49.306;8.500;2023-05-24T04:02:45;1.00;;;0.90;;
9722;SDS011;4900;49.306;8.500;2023-05-24T04:05:11;1.43;;;1.20;;
9722;SDS011;4900;49.306;8.500;2023-05-24T04:07:38;1.30;;;1.00;;
9722;SDS011;4900;49.306;8.500;2023-05-24T04:10:04;1.30;;;1.20;;
9722;SDS011;4900;49.306;8.500;2023-05-24T04:12:33;1.30;;;0.93;;
9722;SDS011;4900;49.306;8.500;2023-05-24T04:14:59;1.23;;;1.00;;
9722;SDS011;4900;49.306;8.500;2023-05-24T04:17:25;1.13;;;1.02;;
9722;SDS011;4900;49.306;8.500;2023-05-24T04:19:53;1.10;;;1.00;;
9722;SDS011;4900;49.306;8.500;2023-05-24T04:22:18;1.43;;;1.10;;
9722;SDS011;4900;49.306;8.500;2023-05-24T04:24:44;1.40;;;1.10;;
9722;SDS011;4900;49.306;8.500;2023-05-24T04:27:10;1.20;;;1.10;;
9722;SDS011;4900;49.306;8.500;2023-05-24T04:29:35;0.93;;;0.90;;
9722;SDS011;4900;49.306;8.500;2023-05-24T04:32:01;1.30;;;1.13;;
9722;SDS011;4900;49.306;8.500;2023-05-24T04:34:29;1.10;;;1.00;;
9722;SDS011;4900;49.306;8.500;2023-05-24T04:36:58;1.38;;;1.15;;
9722;SDS011;4900;49.306;8.500;2023-05-24T04:39:23;1.00;;;0.85;;
9722;SDS011;4900;49.306;8.500;2023-05-24T04:41:51;0.80;;;0.80;;
9722;SDS011;4900;49.306;8.500;2023-05-24T04:44:19;1.08;;;0.98;;
9722;SDS011;4900;49.306;8.500;2023-05-24T04:46:44;1.00;;;0.90;;
9722;SDS011;4900;49.306;8.500;2023-05-24T04:49:10;1.02;;;1.00;;
9722;SDS011;4900;49.306;8.500;2023-05-24T04:51:35;1.38;;;1.10;;
9722;SDS011;4900;49.306;8.500;2023-05-24T04:54:05;1.10;;;1.00;;
9722;SDS011;4900;49.306;8.500;2023-05-24T04:56:33;1.17;;;1.08;;
9722;SDS011;4900;49.306;8.500;2023-05-24T04:59:00;1.77;;;1.17;;
9722;SDS011;4900;49.306;8.500;2023-05-24T05:01:25;1.52;;;0.98;;
9722;SDS011;4900;49.306;8.500;2023-05-24T05:03:51;1.20;;;1.10;;
9722;SDS011;4900;49.306;8.500;2023-05-24T05:06:17;1.55;;;0.90;;
9722;SDS011;4900;49.306;8.500;2023-05-24T05:08:42;1.55;;;1.20;;
9722;SDS011;4900;49.306;8.500;2023-05-24T05:11:08;0.80;;;0.77;;
9722;SDS011;4900;49.306;8.500;2023-05-24T05:13:33;1.00;;;0.90;;
9722;SDS011;4900;49.306;8.500;2023-05-24T05:15:59;1.52;;;1.10;;
9722;SDS011;4900;49.306;8.500;2023-05-24T05:18:25;1.48;;;0.98;;
9722;SDS011;4900;49.306;8.500;2023-05-24T05:20:51;1.23;;;1.02;;
9722;SDS011;4900;49.306;8.500;2023-05-24T05:23:16;1.00;;;0.90;;
9722;SDS011;4900;49.306;8.500;2023-05-24T05:25:42;1.15;;;1.05;;
9722;SDS011;4900;49.306;8.500;2023-05-24T05:28:07;0.95;;;0.88;;
9722;SDS011;4900;49.306;8.500;2023-05-24T05:30:33;0.90;;;0.90;;
9722;SDS011;4900;49.306;8.500;2023-05-24T05:32:58;1.10;;;1.00;;
9722;SDS011;4900;49.306;8.500;2023-05-24T05:35:23;1.10;;;1.00;;
9722;SDS011;4900;49.306;8.500;2023-05-24T05:37:49;0.90;;;0.90;;
9722;SDS011;4900;49.306;8.500;2023-05-24T05:40:14;1.48;;;1.20;;
9722;SDS011;4900;49.306;8.500;2023-05-24T05:42:40;1.38;;;0.88;;
9722;SDS011;4900;49.306;8.500;2023-05-24T05:45:05;1.10;;;1.00;;
9722;SDS011;4900;49.306;8.500;2023-05-24T05:47:32;1.65;;;1.10;;
9722;SDS011;4900;49.306;8.500;2023-05-24T05:49:57;1.00;;;0.82;;
9722;SDS011;4900;49.306;8.500;2023-05-24T05:52:22;0.90;;;0.90;;
9722;SDS011;4900;49.306;8.500;2023-05-24T05:54:48;1.25;;;1.15;;
9722;SDS011;4900;49.306;8.500;2023-05-24T05:57:13;0.88;;;0.88;;
9722;SDS011;4900;49.306;8.500;2023-05-24T05:59:40;1.70;;;1.20;;
9722;SDS011;4900;49.306;8.500;2023-05-24T06:02:05;0.77;;;0.77;;
9722;SDS011;4900;49.306;8.500;2023-05-24T06:04:31;1.48;;;0.98;;
9722;SDS011;4900;49.306;8.500;2023-05-24T06:06:57;1.83;;;1.30;;
9722;SDS011;4900;49.306;8.500;2023-05-24T06:09:22;1.30;;;1.10;;
9722;SDS011;4900;49.306;8.500;2023-05-24T06:11:47;1.33;;;1.00;;
9722;SDS011;4900;49.306;8.500;2023-05-24T06:14:13;1.67;;;1.15;;
9722;SDS011;4900;49.306;8.500;2023-05-24T06:16:43;0.80;;;0.80;;
9722;SDS011;4900;49.306;8.500;2023-05-24T06:19:10;0.70;;;0.70;;
9722;SDS011;4900;49.306;8.500;2023-05-24T06:21:36;2.47;;;1.17;;
9722;SDS011;4900;49.306;8.500;2023-05-24T06:24:02;2.33;;;1.10;;
9722;SDS011;4900;49.306;8.500;2023-05-24T06:26:28;1.20;;;1.00;;
9722;SDS011;4900;49.306;8.500;2023-05-24T06:28:54;1.08;;;1.02;;
9722;SDS011;4900;49.306;8.500;2023-05-24T06:31:19;1.75;;;1.20;;
9722;SDS011;4900;49.306;8.500;2023-05-24T06:33:45;0.95;;;0.95;;
9722;SDS011;4900;49.306;8.500;2023-05-24T06:36:11;1.83;;;1.35;;
9722;SDS011;4900;49.306;8.500;2023-05-24T06:38:36;1.52;;;1.15;;
9722;SDS011;4900;49.306;8.500;2023-05-24T06:41:11;1.55;;;1.08;;
9722;SDS011;4900;49.306;8.500;2023-05-24T06:43:44;1.80;;;0.90;;
9722;SDS011;4900;49.306;8.500;2023-05-24T06:46:10;1.27;;;1.17;;
9722;SDS011;4900;49.306;8.500;2023-05-24T06:48:36;1.55;;;1.30;;
9722;SDS011;4900;49.306;8.500;2023-05-24T06:51:01;1.58;;;1.00;;
9722;SDS011;4900;49.306;8.500;2023-05-24T06:53:27;1.13;;;1.02;;
9722;SDS011;4900;49.306;8.500;2023-05-24T06:55:53;1.40;;;1.20;;
9722;SDS011;4900;49.306;8.500;2023-05-24T06:58:18;1.85;;;1.23;;
9722;SDS011;4900;49.306;8.500;2023-05-24T07:00:44;0.88;;;0.88;;
9722;SDS011;4900;49.306;8.500;2023-05-24T07:03:11;1.27;;;0.90;;
9722;SDS011;4900;49.306;8.500;2023-05-24T07:05:37;1.10;;;0.93;;
9722;SDS011;4900;49.306;8.500;2023-05-24T07:08:03;0.90;;;0.85;;
9722;SDS011;4900;49.306;8.500;2023-05-24T07:10:28;2.00;;;0.90;;
9722;SDS011;4900;49.306;8.500;2023-05-24T07:12:54;0.95;;;0.93;;
9722;SDS011;4900;49.306;8.500;2023-05-24T07:15:20;1.15;;;0.80;;
9722;SDS011;4900;49.306;8.500;2023-05-24T07:17:45;0.95;;;0.90;;
9722;SDS011;4900;49.306;8.500;2023-05-24T07:20:12;0.82;;;0.75;;
9722;SDS011;4900;49.306;8.500;2023-05-24T07:22:38;1.15;;;1.05;;
9722;SDS011;4900;49.306;8.500;2023-05-24T07:25:04;3.35;;;1.73;;
9722;SDS011;4900;49.306;8.500;2023-05-24T07:27:30;1.25;;;1.00;;
9722;SDS011;4900;49.306;8.500;2023-05-24T07:29:56;1.23;;;1.10;;
9722;SDS011;4900;49.306;8.500;2023-05-24T07:32:22;0.80;;;0.80;;
9722;SDS011;4900;49.306;8.500;2023-05-24T07:34:49;0.70;;;0.70;;
9722;SDS011;4900;49.306;8.500;2023-05-24T07:37:14;1.70;;;0.90;;
9722;SDS011;4900;49.306;8.500;2023-05-24T07:39:41;0.80;;;0.80;;
9722;SDS011;4900;49.306;8.500;2023-05-24T07:42:07;0.80;;;0.80;;
9722;SDS011;4900;49.306;8.500;2023-05-24T07:44:33;1.77;;;0.93;;
9722;SDS011;4900;49.306;8.500;2023-05-24T07:46:59;0.60;;;0.60;;
9722;SDS011;4900;49.306;8.500;2023-05-24T07:49:26;1.23;;;0.80;;
9722;SDS011;4900;49.306;8.500;2023-05-24T07:51:52;2.42;;;0.98;;
9722;SDS011;4900;49.306;8.500;2023-05-24T07:54:21;0.90;;;0.88;;
9722;SDS011;4900;49.306;8.500;2023-05-24T07:56:47;1.00;;;0.80;;
9722;SDS011;4900;49.306;8.500;2023-05-24T07:59:13;0.88;;;0.88;;
9722;SDS011;4900;49.306;8.500;2023-05-24T08:01:38;1.00;;;0.75;;
9722;SDS011;4900;49.306;8.500;2023-05-24T08:04:04;1.10;;;0.98;;
9722;SDS011;4900;49.306;8.500;2023-05-24T08:06:30;1.20;;;1.00;;
9722;SDS011;4900;49.306;8.500;2023-05-24T08:08:56;0.88;;;0.80;;
9722;SDS011;4900;49.306;8.500;2023-05-24T08:11:22;1.20;;;0.88;;
9722;SDS011;4900;49.306;8.500;2023-05-24T08:13:48;1.27;;;0.80;;
9722;SDS011;4900;49.306;8.500;2023-05-24T08:16:13;1.05;;;0.95;;
9722;SDS011;4900;49.306;8.500;2023-05-24T08:18:39;1.73;;;1.10;;
9722;SDS011;4900;49.306;8.500;2023-05-24T08:21:04;1.25;;;0.90;;
9722;SDS011;4900;49.306;8.500;2023-05-24T08:23:30;1.60;;;1.00;;
9722;SDS011;4900;49.306;8.500;2023-05-24T08:25:56;1.10;;;1.00;;
9722;SDS011;4900;49.306;8.500;2023-05-24T08:28:22;1.17;;;0.98;;
9722;SDS011;4900;49.306;8.500;2023-05-24T08:30:48;0.73;;;0.73;;
9722;SDS011;4900;49.306;8.500;2023-05-24T08:33:13;1.33;;;0.95;;
9722;SDS011;4900;49.306;8.500;2023-05-24T08:35:39;1.20;;;1.02;;
9722;SDS011;4900;49.306;8.500;2023-05-24T08:38:05;0.70;;;0.70;;
9722;SDS011;4900;49.306;8.500;2023-05-24T08:40:31;0.93;;;0.90;;
9722;SDS011;4900;49.306;8.500;2023-05-24T08:42:58;1.20;;;0.77;;
9722;SDS011;4900;49.306;8.500;2023-05-24T08:45:25;1.10;;;1.00;;
9722;SDS011;4900;49.306;8.500;2023-05-24T08:47:53;0.90;;;0.90;;
9722;SDS011;4900;49.306;8.500;2023-05-24T08:50:20;0.88;;;0.73;;
9722;SDS011;4900;49.306;8.500;2023-05-24T08:52:46;2.22;;;0.93;;
9722;SDS011;4900;49.306;8.500;2023-05-24T08:55:13;1.15;;;1.05;;
9722;SDS011;4900;49.306;8.500;2023-05-24T08:57:39;1.08;;;0.85;;
9722;SDS011;4900;49.306;8.500;2023-05-24T09:00:06;1.63;;;0.90;;
9722;SDS011;4900;49.306;8.500;2023-05-24T09:02:40;1.10;;;0.98;;
9722;SDS011;4900;49.306;8.500;2023-05-24T09:05:10;1.48;;;1.08;;
9722;SDS011;4900;49.306;8.500;2023-05-24T09:07:39;1.27;;;0.93;;
9722;SDS011;4900;49.306;8.500;2023-05-24T09:10:06;1.45;;;1.00;;
9722;SDS011;4900;49.306;8.500;2023-05-24T09:12:33;1.42;;;1.20;;
9722;SDS011;4900;49.306;8.500;2023-05-24T09:15:01;1.40;;;1.20;;
9722;SDS011;4900;49.306;8.500;2023-05-24T09:17:28;1.33;;;1.00;;
9722;SDS011;4900;49.306;8.500;2023-05-24T09:19:56;1.35;;;1.05;;
9722;SDS011;4900;49.306;8.500;2023-05-24T09:22:26;1.35;;;0.80;;
9722;SDS011;4900;49.306;8.500;2023-05-24T09:24:56;1.85;;;0.82;;
9722;SDS011;4900;49.306;8.500;2023-05-24T09:27:22;1.13;;;0.90;;
9722;SDS011;4900;49.306;8.500;2023-05-24T09:29:48;0.90;;;0.80;;
9722;SDS011;4900;49.306;8.500;2023-05-24T09:32:15;1.48;;;1.00;;
9722;SDS011;4900;49.306;8.500;2023-05-24T09:34:42;1.08;;;0.90;;
9722;SDS011;4900;49.306;8.500;2023-05-24T09:39:43;0.75;;;0.75;;
9722;SDS011;4900;49.306;8.500;2023-05-24T09:42:22;1.38;;;1.00;;
9722;SDS011;4900;49.306;8.500;2023-05-24T09:47:32;1.48;;;0.90;;
9722;SDS011;4900;49.306;8.500;2023-05-24T09:49:59;0.93;;;0.90;;
9722;SDS011;4900;49.306;8.500;2023-05-24T09:52:27;1.55;;;1.10;;
9722;SDS011;4900;49.306;8.500;2023-05-24T09:54:52;0.77;;;0.77;;
9722;SDS011;4900;49.306;8.500;2023-05-24T09:57:18;1.08;;;0.98;;
9722;SDS011;4900;49.306;8.500;2023-05-24T09:59:47;1.42;;;0.93;;
9722;SDS011;4900;49.306;8.500;2023-05-24T10:02:13;1.00;;;0.90;;
9722;SDS011;4900;49.306;8.500;2023-05-24T10:04:40;0.85;;;0.82;;
9722;SDS011;4900;49.306;8.500;2023-05-24T10:07:06;1.00;;;0.90;;
9722;SDS011;4900;49.306;8.500;2023-05-24T10:09:32;1.15;;;1.00;;
9722;SDS011;4900;49.306;8.500;2023-05-24T10:12:05;1.17;;;0.98;;
9722;SDS011;4900;49.306;8.500;2023-05-24T10:14:33;1.05;;;0.95;;
9722;SDS011;4900;49.306;8.500;2023-05-24T10:17:00;1.00;;;0.90;;
9722;SDS011;4900;49.306;8.500;2023-05-24T10:19:27;0.95;;;0.93;;
9722;SDS011;4900;49.306;8.500;2023-05-24T10:21:53;1.00;;;0.90;;
9722;SDS011;4900;49.306;8.500;2023-05-24T10:24:23;1.42;;;0.90;;
9722;SDS011;4900;49.306;8.500;2023-05-24T10:26:53;1.20;;;1.08;;
9722;SDS011;4900;49.306;8.500;2023-05-24T10:29:32;1.15;;;1.00;;
9722;SDS011;4900;49.306;8.500;2023-05-24T10:32:19;0.93;;;0.90;;
9722;SDS011;4900;49.306;8.500;2023-05-24T10:34:47;0.90;;;0.90;;
9722;SDS011;4900;49.306;8.500;2023-05-24T10:37:15;0.80;;;0.80;;
9722;SDS011;4900;49.306;8.500;2023-05-24T10:39:42;1.10;;;1.00;;
9722;SDS011;4900;49.306;8.500;2023-05-24T10:42:07;0.80;;;0.80;;
9722;SDS011;4900;49.306;8.500;2023-05-24T10:44:33;1.00;;;0.90;;
9722;SDS011;4900;49.306;8.500;2023-05-24T10:47:11;0.80;;;0.80;;
9722;SDS011;4900;49.306;8.500;2023-05-24T10:49:59;1.00;;;0.90;;
9722;SDS011;4900;49.306;8.500;2023-05-24T10:52:40;1.08;;;0.98;;
9722;SDS011;4900;49.306;8.500;2023-05-24T10:55:06;1.38;;;1.05;;
9722;SDS011;4900;49.306;8.500;2023-05-24T10:57:33;1.30;;;1.05;;
9722;SDS011;4900;49.306;8.500;2023-05-24T11:02:48;1.63;;;0.90;;
9722;SDS011;4900;49.306;8.500;2023-05-24T11:05:14;1.00;;;0.90;;
9722;SDS011;4900;49.306;8.500;2023-05-24T11:07:41;1.10;;;1.00;;
9722;SDS011;4900;49.306;8.500;2023-05-24T11:10:28;1.50;;;1.10;;
9722;SDS011;4900;49.306;8.500;2023-05-24T11:13:00;1.20;;;1.00;;
9722;SDS011;4900;49.306;8.500;2023-05-24T11:15:26;1.55;;;0.93;;
9722;SDS011;4900;49.306;8.500;2023-05-24T11:20:36;1.10;;;0.93;;
9722;SDS011;4900;49.306;8.500;2023-05-24T11:23:02;1.27;;;1.00;;
9722;SDS011;4900;49.306;8.500;2023-05-24T11:25:29;1.20;;;1.10;;
9722;SDS011;4900;49.306;8.500;2023-05-24T11:27:57;1.40;;;1.10;;
9722;SDS011;4900;49.306;8.500;2023-05-24T11:30:23;2.30;;;1.20;;
9722;SDS011;4900;49.306;8.500;2023-05-24T11:32:48;1.50;;;0.90;;
9722;SDS011;4900;49.306;8.500;2023-05-24T11:35:14;0.98;;;0.90;;
9722;SDS011;4900;49.306;8.500;2023-05-24T11:37:40;1.23;;;1.13;;
9722;SDS011;4900;49.306;8.500;2023-05-24T11:40:07;1.20;;;1.00;;
9722;SDS011;4900;49.306;8.500;2023-05-24T11:42:36;1.95;;;1.23;;
9722;SDS011;4900;49.306;8.500;2023-05-24T11:45:03;1.20;;;1.08;;
9722;SDS011;4900;49.306;8.500;2023-05-24T11:47:34;1.35;;;1.00;;
9722;SDS011;4900;49.306;8.500;2023-05-24T11:50:02;1.10;;;0.82;;
9722;SDS011;4900;49.306;8.500;2023-05-24T11:52:28;1.00;;;0.90;;
9722;SDS011;4900;49.306;8.500;2023-05-24T11:54:53;1.10;;;1.00;;
9722;SDS011;4900;49.306;8.500;2023-05-24T11:57:40;0.90;;;0.90;;
9722;SDS011;4900;49.306;8.500;2023-05-24T12:00:06;1.10;;;1.00;;
9722;SDS011;4900;49.306;8.500;2023-05-24T12:02:41;1.27;;;1.17;;
9722;SDS011;4900;49.306;8.500;2023-05-24T12:05:06;1.08;;;0.90;;
9722;SDS011;4900;49.306;8.500;2023-05-24T12:07:38;1.10;;;1.00;;
9722;SDS011;4900;49.306;8.500;2023-05-24T12:10:04;1.23;;;0.98;;
9722;SDS011;4900;49.306;8.500;2023-05-24T12:12:32;1.33;;;1.23;;
9722;SDS011;4900;49.306;8.500;2023-05-24T12:14:58;0.98;;;0.98;;
9722;SDS011;4900;49.306;8.500;2023-05-24T12:17:23;1.73;;;1.20;;
9722;SDS011;4900;49.306;8.500;2023-05-24T12:19:49;1.30;;;0.90;;
9722;SDS011;4900;49.306;8.500;2023-05-24T12:22:15;1.10;;;1.00;;
9722;SDS011;4900;49.306;8.500;2023-05-24T12:24:41;1.67;;;1.00;;
9722;SDS011;4900;49.306;8.500;2023-05-24T12:27:06;1.10;;;1.00;;
9722;SDS011;4900;49.306;8.500;2023-05-24T12:29:36;0.90;;;0.90;;
9722;SDS011;4900;49.306;8.500;2023-05-24T12:32:04;1.10;;;1.00;;
9722;SDS011;4900;49.306;8.500;2023-05-24T12:34:30;1.48;;;1.00;;
9722;SDS011;4900;49.306;8.500;2023-05-24T12:36:56;1.20;;;1.10;;
9722;SDS011;4900;49.306;8.500;2023-05-24T12:39:22;1.20;;;1.02;;
9722;SDS011;4900;49.306;8.500;2023-05-24T12:41:54;1.20;;;1.10;;
9722;SDS011;4900;49.306;8.500;2023-05-24T12:44:30;0.90;;;0.90;;
9722;SDS011;4900;49.306;8.500;2023-05-24T12:46:58;1.38;;;1.20;;
9722;SDS011;4900;49.306;8.500;2023-05-24T12:49:24;1.38;;;1.23;;
9722;SDS011;4900;49.306;8.500;2023-05-24T12:51:50;1.42;;;1.20;;
9722;SDS011;4900;49.306;8.500;2023-05-24T12:54:17;1.35;;;1.20;;
9722;SDS011;4900;49.306;8.500;2023-05-24T12:56:43;1.20;;;1.10;;
9722;SDS011;4900;49.306;8.500;2023-05-24T12:59:09;1.23;;;1.13;;
9722;SDS011;4900;49.306;8.500;2023-05-24T13:01:34;1.30;;;1.20;;
9722;SDS011;4900;49.306;8.500;2023-05-24T13:04:00;1.67;;;1.50;;
9722;SDS011;4900;49.306;8.500;2023-05-24T13:06:26;1.30;;;1.20;;
9722;SDS011;4900;49.306;8.500;2023-05-24T13:08:51;2.08;;;1.40;;
9722;SDS011;4900;49.306;8.500;2023-05-24T13:11:17;1.27;;;1.17;;
9722;SDS011;4900;49.306;8.500;2023-05-24T13:13:43;1.25;;;1.15;;
9722;SDS011;4900;49.306;8.500;2023-05-24T13:16:11;1.48;;;1.25;;
9722;SDS011;4900;49.306;8.500;2023-05-24T13:18:37;1.55;;;1.10;;
9722;SDS011;4900;49.306;8.500;2023-05-24T13:21:03;2.03;;;1.30;;
9722;SDS011;4900;49.306;8.500;2023-05-24T13:23:30;1.58;;;1.35;;
9722;SDS011;4900;49.306;8.500;2023-05-24T13:25:55;1.75;;;1.10;;
9722;SDS011;4900;49.306;8.500;2023-05-24T13:28:21;1.40;;;1.30;;
9722;SDS011;4900;49.306;8.500;2023-05-24T13:30:47;1.27;;;1.17;;
9722;SDS011;4900;49.306;8.500;2023-05-24T13:33:12;1.20;;;1.10;;
9722;SDS011;4900;49.306;8.500;2023-05-24T13:35:38;1.83;;;1.63;;
9722;SDS011;4900;49.306;8.500;2023-05-24T13:38:04;1.00;;;0.90;;
9722;SDS011;4900;49.306;8.500;2023-05-24T13:40:30;2.65;;;1.30;;
9722;SDS011;4900;49.306;8.500;2023-05-24T13:42:55;1.58;;;1.10;;
9722;SDS011;4900;49.306;8.500;2023-05-24T13:45:21;1.70;;;1.50;;
9722;SDS011;4900;49.306;8.500;2023-05-24T13:47:47;1.80;;;1.55;;
9722;SDS011;4900;49.306;8.500;2023-05-24T13:50:13;1.50;;;1.20;;
9722;SDS011;4900;49.306;8.500;2023-05-24T13:52:38;1.30;;;1.20;;
9722;SDS011;4900;49.306;8.500;2023-05-24T13:55:04;2.92;;;1.40;;
9722;SDS011;4900;49.306;8.500;2023-05-24T13:57:30;2.03;;;1.30;;
9722;SDS011;4900;49.306;8.500;2023-05-24T13:59:57;1.85;;;1.23;;
9722;SDS011;4900;49.306;8.500;2023-05-24T14:02:24;1.63;;;1.20;;
9722;SDS011;4900;49.306;8.500;2023-05-24T14:04:51;1.40;;;1.30;;
9722;SDS011;4900;49.306;8.500;2023-05-24T14:07:17;1.90;;;1.20;;
9722;SDS011;4900;49.306;8.500;2023-05-24T14:09:43;1.40;;;1.30;;
9722;SDS011;4900;49.306;8.500;2023-05-24T14:12:08;2.08;;;1.13;;
9722;SDS011;4900;49.306;8.500;2023-05-24T14:14:34;1.88;;;1.02;;
9722;SDS011;4900;49.306;8.500;2023-05-24T14:16:59;1.30;;;1.10;;
9722;SDS011;4900;49.306;8.500;2023-05-24T14:19:25;1.80;;;1.30;;
9722;SDS011;4900;49.306;8.500;2023-05-24T14:21:51;2.60;;;1.33;;
9722;SDS011;4900;49.306;8.500;2023-05-24T14:24:16;2.45;;;1.10;;
9722;SDS011;4900;49.306;8.500;2023-05-24T14:26:41;1.58;;;1.40;;
9722;SDS011;4900;49.306;8.500;2023-05-24T14:29:07;1.50;;;1.17;;
9722;SDS011;4900;49.306;8.500;2023-05-24T14:31:33;1.13;;;1.00;;
9722;SDS011;4900;49.306;8.500;2023-05-24T14:34:06;1.42;;;1.27;;
9722;SDS011;4900;49.306;8.500;2023-05-24T14:36:35;1.02;;;0.98;;
9722;SDS011;4900;49.306;8.500;2023-05-24T14:39:05;1.33;;;1.20;;
9722;SDS011;4900;49.306;8.500;2023-05-24T14:41:31;1.67;;;1.23;;
9722;SDS011;4900;49.306;8.500;2023-05-24T14:43:58;1.95;;;0.98;;
9722;SDS011;4900;49.306;8.500;2023-05-24T14:46:24;1.52;;;1.27;;
9722;SDS011;4900;49.306;8.500;2023-05-24T14:48:49;1.85;;;1.17;;
9722;SDS011;4900;49.306;8.500;2023-05-24T14:51:15;1.27;;;1.10;;
9722;SDS011;4900;49.306;8.500;2023-05-24T14:53:40;1.27;;;1.10;;
9722;SDS011;4900;49.306;8.500;2023-05-24T14:56:05;1.30;;;1.20;;
9722;SDS011;4900;49.306;8.500;2023-05-24T14:58:33;1.55;;;1.13;;
9722;SDS011;4900;49.306;8.500;2023-05-24T15:00:58;1.92;;;1.38;;
9722;SDS011;4900;49.306;8.500;2023-05-24T15:03:24;1.40;;;1.30;;
9722;SDS011;4900;49.306;8.500;2023-05-24T15:05:49;1.08;;;0.98;;
9722;SDS011;4900;49.306;8.500;2023-05-24T15:08:16;1.48;;;1.20;;
9722;SDS011;4900;49.306;8.500;2023-05-24T15:10:41;1.80;;;1.33;;
9722;SDS011;4900;49.306;8.500;2023-05-24T15:13:10;1.30;;;1.00;;
9722;SDS011;4900;49.306;8.500;2023-05-24T15:15:36;1.40;;;1.30;;
9722;SDS011;4900;49.306;8.500;2023-05-24T15:18:01;1.98;;;1.30;;
9722;SDS011;4900;49.306;8.500;2023-05-24T15:20:26;1.23;;;1.10;;
9722;SDS011;4900;49.306;8.500;2023-05-24T15:22:52;1.10;;;1.00;;
9722;SDS011;4900;49.306;8.500;2023-05-24T15:25:18;1.20;;;1.10;;
9722;SDS011;4900;49.306;8.500;2023-05-24T15:27:43;1.98;;;1.25;;
9722;SDS011;4900;49.306;8.500;2023-05-24T15:30:09;1.38;;;1.27;;
9722;SDS011;4900;49.306;8.500;2023-05-24T15:32:34;1.33;;;1.17;;
9722;SDS011;4900;49.306;8.500;2023-05-24T15:35:00;1.70;;;1.30;;
9722;SDS011;4900;49.306;8.500;2023-05-24T15:37:26;1.02;;;1.00;;
9722;SDS011;4900;49.306;8.500;2023-05-24T15:39:51;1.15;;;1.02;;
9722;SDS011;4900;49.306;8.500;2023-05-24T15:42:17;1.40;;;1.30;;